Zima, Russia
Current Conditions -  °F | °C
As of 1:30 AM on Sunday 23 Nov 2014 (Local Time) from UIBB Reporting Station
Blowing Snow Blowing Snow  
Wind Chill: -7°   Ceiling: Unl
Heat Index: 10°   Visibility: 3mi
Dew Point: -4°   Wind: 18mph
Humidity: 52%   Direction: 260°W
Pressure: 29.83"   Gusts: 29mph
Location:  53.93°N, 102.04°E
Report Text: UIBB 221730Z 26008G13MPS 5000 BLSN SCT023CB M12/M20 Q1010 NOSIGRMK QFE714/0953 30592030
Loading
Personal Weather Stations






























Interactive Weather Map New forecast layout! Learn more

10-Day Weather Forecast

Advertisements
Track Severe Weather on mobile